Time;durP1;ratioP1;P1;durP2;ratioP2;P2;SDS_P1;SDS_P2;PMS_P1;PMS_P2;Temp;Humidity;BMP_temperature;BMP_pressure;BME280_temperature;BME280_humidity;BME280_pressure;Samples;Min_cycle;Max_cycle;Signal;HPM_P1;HPM_P2
2022/01/14 00:02:14;;;;;;;14.00;4.88;;;8.70;96.40;;;;;;5034531;28;20033;-72
2022/01/14 00:04:40;;;;;;;10.43;3.80;;;8.70;96.70;;;;;;5033475;28;20021;-73
2022/01/14 00:07:06;;;;;;;10.55;4.38;;;8.70;96.50;;;;;;5033709;28;20053;-72
2022/01/14 00:09:33;;;;;;;12.07;4.38;;;8.70;96.50;;;;;;5033159;28;20112;-72
2022/01/14 00:12:00;;;;;;;10.85;4.25;;;8.70;96.50;;;;;;5034030;28;20061;-73
2022/01/14 00:17:15;;;;;;;10.85;4.35;;;8.70;96.50;;;;;;5024198;28;20475;-72
2022/01/14 00:19:42;;;;;;;16.63;4.50;;;8.70;96.50;;;;;;5033583;28;20065;-72
2022/01/14 00:22:13;;;;;;;10.02;3.38;;;8.70;96.50;;;;;;5034025;28;20057;-72
2022/01/14 00:33:01;;;;;;;10.25;3.78;;;8.70;96.60;;;;;;5014174;28;20080;-72
2022/01/14 00:35:27;;;;;;;12.10;5.10;;;8.70;96.60;;;;;;5030401;28;20480;-73
2022/01/14 00:37:53;;;;;;;18.85;5.45;;;8.70;96.50;;;;;;5033091;28;20112;-72
2022/01/14 00:40:18;;;;;;;9.60;4.00;;;8.70;96.50;;;;;;5033502;28;20541;-72
2022/01/14 00:42:45;;;;;;;5.25;2.78;;;8.70;96.50;;;;;;5033777;28;20496;-72
2022/01/14 00:45:11;;;;;;;15.05;6.15;;;8.70;96.50;;;;;;5028837;28;20041;-73
2022/01/14 00:47:39;;;;;;;8.05;4.47;;;8.70;96.50;;;;;;5025252;28;20556;-72
2022/01/14 00:50:10;;;;;;;6.30;3.17;;;8.70;96.50;;;;;;5033274;28;20022;-72
2022/01/14 00:52:37;;;;;;;6.72;3.20;;;8.70;96.50;;;;;;5032951;28;20033;-72
2022/01/14 00:55:03;;;;;;;12.80;4.30;;;8.70;96.50;;;;;;5033166;28;20017;-72
2022/01/14 01:00:15;;;;;;;12.95;5.10;;;8.70;96.40;;;;;;5032706;28;20029;-72
2022/01/14 01:02:41;;;;;;;10.63;4.97;;;8.70;96.40;;;;;;5032845;28;20033;-72
2022/01/14 01:05:07;;;;;;;11.88;5.25;;;8.70;96.40;;;;;;5033215;28;20025;-72
2022/01/14 01:07:33;;;;;;;12.82;4.78;;;8.80;96.40;;;;;;5032161;28;20127;-72
2022/01/14 01:09:58;;;;;;;10.95;3.88;;;8.70;96.40;;;;;;5032768;28;20076;-72
2022/01/14 01:12:42;;;;;;;17.90;5.05;;;8.70;96.40;;;;;;5033059;28;20603;-72
2022/01/14 01:15:12;;;;;;;18.33;6.15;;;8.70;96.40;;;;;;5032577;28;20029;-72
2022/01/14 01:17:38;;;;;;;12.40;4.57;;;8.70;96.40;;;;;;5032894;28;20041;-72
2022/01/14 01:20:18;;;;;;;13.52;4.63;;;8.70;96.40;;;;;;5032178;28;20102;-72
2022/01/14 01:22:49;;;;;;;8.13;3.28;;;8.70;96.50;;;;;;5032718;28;20037;-72
2022/01/14 01:25:30;;;;;;;12.60;5.20;;;8.70;96.40;;;;;;5030569;28;20057;-72
2022/01/14 01:27:55;;;;;;;20.55;5.68;;;8.70;96.40;;;;;;5032153;28;20033;-72
2022/01/14 01:32:58;;;;;;;15.10;4.82;;;8.70;96.50;;;;;;5032794;28;20029;-72
2022/01/14 01:35:24;;;;;;;16.92;5.70;;;8.70;96.50;;;;;;5031633;28;20159;-72
2022/01/14 01:37:50;;;;;;;15.10;5.15;;;8.70;96.50;;;;;;5032984;28;20385;-72
2022/01/14 01:40:15;;;;;;;21.00;6.00;;;8.60;96.50;;;;;;5032532;28;20034;-72
2022/01/14 01:42:45;;;;;;;11.25;5.30;;;8.60;96.60;;;;;;5031985;28;20084;-72
2022/01/14 01:45:15;;;;;;;13.85;5.65;;;8.60;96.60;;;;;;5032474;28;20040;-73
2022/01/14 01:47:42;;;;;;;4.13;2.88;;;8.60;96.60;;;;;;5032546;28;20037;-72
2022/01/14 01:50:16;;;;;;;9.95;4.72;;;8.60;96.60;;;;;;5028789;28;20045;-72
2022/01/14 01:52:42;;;;;;;;;;;8.60;96.60;;;;;;5032832;28;20039;-72
2022/01/14 01:55:09;;;;;;;10.75;5.80;;;8.60;96.60;;;;;;5031644;28;20447;-72
2022/01/14 01:57:35;;;;;;;13.18;5.30;;;8.60;96.60;;;;;;5032317;28;20480;-72
2022/01/14 02:00:01;;;;;;;19.20;4.32;;;8.60;96.60;;;;;;5032295;28;20123;-72
2022/01/14 02:02:28;;;;;;;8.50;3.17;;;8.60;96.70;;;;;;5031007;28;20026;-72
2022/01/14 02:04:54;;;;;;;14.07;3.83;;;8.60;96.60;;;;;;5032169;28;20040;-72
2022/01/14 02:07:19;;;;;;;14.88;5.32;;;8.60;96.60;;;;;;5032003;28;20045;-72
2022/01/14 02:09:45;;;;;;;8.88;4.57;;;8.60;96.60;;;;;;5031528;28;20037;-72
2022/01/14 02:12:11;;;;;;;7.65;4.60;;;8.70;96.50;;;;;;5032341;28;20116;-72
2022/01/14 02:15:08;;;;;;;10.90;5.40;;;8.70;96.50;;;;;;5032150;28;20041;-73
2022/01/14 02:17:52;;;;;;;17.40;4.18;;;8.70;96.50;;;;;;5031470;28;20041;-72
2022/01/14 02:23:05;;;;;;;11.52;4.55;;;8.70;96.40;;;;;;5031970;28;20037;-73
2022/01/14 02:25:31;;;;;;;13.98;3.88;;;8.70;96.40;;;;;;5031670;28;20058;-73
2022/01/14 02:28:01;;;;;;;15.30;6.00;;;8.70;96.40;;;;;;5032335;28;20037;-72
2022/01/14 02:30:29;;;;;;;13.65;5.88;;;8.70;96.40;;;;;;5031316;28;20040;-72
2022/01/14 02:32:55;;;;;;;12.57;5.85;;;8.60;96.40;;;;;;5032289;28;20123;-72
2022/01/14 02:35:24;;;;;;;15.18;5.75;;;8.60;96.40;;;;;;5031930;28;20060;-72
2022/01/14 02:37:50;;;;;;;10.25;4.40;;;8.60;96.40;;;;;;5034778;28;20037;-72
2022/01/14 02:40:20;;;;;;;10.68;3.10;;;8.60;96.40;;;;;;5035572;28;20504;-72
2022/01/14 02:42:48;;;;;;;5.40;4.35;;;8.60;96.50;;;;;;5036095;28;20030;-72
2022/01/14 02:45:14;;;;;;;18.13;5.57;;;8.60;96.50;;;;;;5035030;28;20144;-72
2022/01/14 02:47:41;;;;;;;14.48;4.60;;;8.60;96.60;;;;;;5035690;28;20079;-72
2022/01/14 02:50:09;;;;;;;8.07;4.43;;;8.60;96.60;;;;;;5035247;28;20120;-72
2022/01/14 02:55:22;;;;;;;13.73;5.45;;;8.60;96.50;;;;;;5024751;28;20025;-72
2022/01/14 02:57:50;;;;;;;7.63;4.32;;;8.60;96.50;;;;;;5035196;28;20087;-72
2022/01/14 03:00:19;;;;;;;8.30;4.25;;;8.60;96.50;;;;;;5034882;28;20116;-73
2022/01/14 03:02:47;;;;;;;13.20;5.43;;;8.70;96.50;;;;;;5035173;28;20033;-72
2022/01/14 03:05:14;;;;;;;16.63;5.65;;;8.60;96.40;;;;;;5035628;28;20021;-72
2022/01/14 03:07:41;;;;;;;15.10;6.32;;;8.70;96.40;;;;;;5034488;28;20037;-72
2022/01/14 03:10:08;;;;;;;13.02;5.65;;;8.60;96.40;;;;;;5035044;28;20033;-72
2022/01/14 03:12:35;;;;;;;9.27;4.38;;;8.60;96.40;;;;;;5034596;28;20068;-72
2022/01/14 03:15:01;;;;;;;7.35;4.03;;;8.60;96.50;;;;;;5035155;28;20035;-72
2022/01/14 03:17:28;;;;;;;9.45;4.22;;;8.60;96.50;;;;;;5034843;28;20034;-72
2022/01/14 03:19:54;;;;;;;17.40;4.30;;;8.60;96.50;;;;;;5034228;28;20041;-72
2022/01/14 03:22:25;;;;;;;6.55;3.80;;;8.60;96.50;;;;;;5034919;28;20091;-72
2022/01/14 03:27:20;;;;;;;7.60;3.67;;;8.70;96.70;;;;;;5031835;28;20040;-72
2022/01/14 03:29:46;;;;;;;9.13;4.43;;;8.70;96.30;;;;;;5024629;28;20036;-72
2022/01/14 03:32:12;;;;;;;11.82;4.78;;;8.70;96.30;;;;;;5034783;28;20033;-72
2022/01/14 03:34:37;;;;;;;3.47;2.55;;;8.80;96.30;;;;;;5034103;28;20072;-72
2022/01/14 03:37:03;;;;;;;13.18;4.88;;;8.80;96.30;;;;;;5034697;28;20060;-72
2022/01/14 03:39:29;;;;;;;14.43;4.57;;;8.80;96.30;;;;;;5034926;28;20040;-72
2022/01/14 03:41:55;;;;;;;3.42;1.42;;;8.90;96.30;;;;;;5029382;28;20033;-72
2022/01/14 03:44:21;;;;;;;5.88;3.33;;;8.90;96.20;;;;;;5033866;28;20038;-72
2022/01/14 03:46:46;;;;;;;6.85;4.03;;;8.90;96.10;;;;;;5034377;28;20057;-72
2022/01/14 03:49:13;;;;;;;15.52;4.10;;;9.00;95.90;;;;;;5033034;28;20064;-72
2022/01/14 03:51:39;;;;;;;7.43;4.45;;;8.90;95.90;;;;;;5034532;28;20362;-72
2022/01/14 03:54:04;;;;;;;4.85;2.40;;;9.00;96.10;;;;;;5032088;28;20040;-72
2022/01/14 03:56:31;;;;;;;6.03;2.70;;;8.90;95.90;;;;;;5033537;28;20037;-72
2022/01/14 03:58:56;;;;;;;8.93;3.55;;;8.90;95.90;;;;;;5033740;28;20021;-72
2022/01/14 04:01:23;;;;;;;1.98;1.52;;;8.90;95.90;;;;;;5034670;28;20032;-72
2022/01/14 04:03:49;;;;;;;10.07;4.35;;;9.00;95.90;;;;;;5033547;28;20075;-72
2022/01/14 04:06:15;;;;;;;6.57;2.88;;;9.00;95.90;;;;;;5034211;28;20037;-72
2022/01/14 04:08:41;;;;;;;8.48;3.63;;;8.90;95.90;;;;;;5033211;28;20067;-72
2022/01/14 04:11:08;;;;;;;10.90;4.18;;;8.90;95.90;;;;;;5034194;28;20076;-72
2022/01/14 04:13:42;;;;;;;17.30;4.15;;;9.00;95.90;;;;;;5033963;28;20052;-72
2022/01/14 04:16:08;;;;;;;16.55;3.70;;;8.90;95.80;;;;;;5033128;28;20026;-73
2022/01/14 04:18:34;;;;;;;6.72;4.30;;;8.90;95.90;;;;;;5034357;28;20087;-72
2022/01/14 04:21:00;;;;;;;1.95;1.73;;;8.90;96.20;;;;;;5034003;28;20026;-72
2022/01/14 04:23:25;;;;;;;5.28;2.60;;;8.90;96.00;;;;;;5033570;28;20091;-72
2022/01/14 04:25:55;;;;;;;13.02;2.65;;;8.90;96.00;;;;;;5033595;28;20057;-72
2022/01/14 04:28:25;;;;;;;13.18;5.43;;;8.90;95.90;;;;;;5034003;28;20136;-72
2022/01/14 04:30:54;;;;;;;17.27;5.45;;;8.90;96.00;;;;;;5033159;28;20469;-72
2022/01/14 04:33:21;;;;;;;12.80;3.90;;;8.90;96.00;;;;;;5033879;28;20044;-72
2022/01/14 04:35:47;;;;;;;14.73;5.45;;;8.80;95.90;;;;;;5026474;28;20022;-72
2022/01/14 04:38:13;;;;;;;4.22;2.85;;;8.80;96.00;;;;;;5027880;28;20177;-72
2022/01/14 04:40:39;;;;;;;7.82;4.10;;;8.80;96.00;;;;;;5033967;28;20029;-72
2022/01/14 04:43:06;;;;;;;3.80;2.50;;;8.80;96.00;;;;;;5033377;28;20045;-71
2022/01/14 04:48:01;;;;;;;16.83;4.88;;;8.80;96.00;;;;;;5033025;28;20069;-72
2022/01/14 04:50:27;;;;;;;10.32;5.22;;;8.80;96.00;;;;;;5033400;28;20038;-71
2022/01/14 04:52:52;;;;;;;5.28;3.10;;;8.90;96.00;;;;;;5032792;28;20033;-72
2022/01/14 04:55:21;;;;;;;9.63;4.88;;;8.80;96.00;;;;;;5033130;28;20041;-71
2022/01/14 04:57:47;;;;;;;7.07;4.15;;;8.80;96.00;;;;;;5033204;28;20025;-72
2022/01/14 05:00:17;;;;;;;8.38;4.30;;;8.80;96.00;;;;;;5032629;28;20519;-72
2022/01/14 05:02:43;;;;;;;11.10;5.28;;;8.80;96.00;;;;;;5032964;28;20037;-72
2022/01/14 05:05:10;;;;;;;8.05;4.47;;;8.80;96.00;;;;;;5032546;28;20125;-72
2022/01/14 05:07:37;;;;;;;6.10;3.35;;;8.80;96.00;;;;;;5032785;28;20131;-72
2022/01/14 05:12:34;;;;;;;14.20;5.72;;;8.80;96.10;;;;;;5020119;28;20350;-72
2022/01/14 05:15:01;;;;;;;8.95;4.68;;;8.80;96.00;;;;;;5033161;28;20044;-73
2022/01/14 05:17:27;;;;;;;11.15;4.80;;;8.80;96.00;;;;;;5032704;28;20037;-72
2022/01/14 05:19:54;;;;;;;18.83;8.45;;;8.70;95.90;;;;;;5032365;28;20471;-71
2022/01/14 05:22:21;;;;;;;2.40;1.67;;;8.80;96.00;;;;;;5028539;28;20037;-72
2022/01/14 05:24:47;;;;;;;5.03;2.83;;;8.80;96.10;;;;;;5024934;28;20050;-72
2022/01/14 05:27:13;;;;;;;7.53;3.22;;;8.80;96.10;;;;;;5032126;28;20132;-72
2022/01/14 05:29:39;;;;;;;7.47;4.25;;;8.80;96.00;;;;;;5032869;28;20056;-72
2022/01/14 05:32:09;;;;;;;4.53;3.05;;;8.80;95.90;;;;;;5032608;28;20108;-72
2022/01/14 05:34:39;;;;;;;9.55;3.15;;;8.80;95.90;;;;;;5031923;28;20396;-72
2022/01/14 05:37:06;;;;;;;6.85;2.95;;;8.80;95.90;;;;;;5032392;28;20048;-71
2022/01/14 05:39:33;;;;;;;10.15;3.65;;;8.80;95.90;;;;;;5031921;28;20032;-71
2022/01/14 05:42:00;;;;;;;9.20;3.75;;;8.80;95.90;;;;;;5031140;28;20021;-71
2022/01/14 05:44:27;;;;;;;11.07;3.97;;;8.80;96.00;;;;;;5032110;28;20037;-72
2022/01/14 05:46:55;;;;;;;5.97;3.42;;;8.80;96.00;;;;;;5031845;28;20076;-70
2022/01/14 05:49:21;;;;;;;9.07;3.58;;;8.80;95.90;;;;;;5030997;28;20060;-70
2022/01/14 05:51:48;;;;;;;8.80;3.85;;;8.80;95.90;;;;;;5031660;28;20029;-70
2022/01/14 05:54:15;;;;;;;9.95;4.95;;;8.90;95.90;;;;;;5031828;28;20037;-69
2022/01/14 05:56:41;;;;;;;12.35;4.72;;;8.80;95.90;;;;;;5032656;28;20034;-68
2022/01/14 05:59:07;;;;;;;15.52;4.78;;;8.90;95.80;;;;;;5027388;28;20041;-70
2022/01/14 06:01:32;;;;;;;3.70;2.25;;;8.90;95.80;;;;;;5024410;28;20030;-70
2022/01/14 06:04:00;;;;;;;7.00;4.30;;;8.80;95.80;;;;;;5032091;28;20022;-70
2022/01/14 06:06:26;;;;;;;7.85;3.42;;;8.90;95.90;;;;;;5031671;28;20387;-70
2022/01/14 06:08:51;;;;;;;3.00;2.05;;;8.80;95.90;;;;;;5029880;28;20051;-70
2022/01/14 06:11:18;;;;;;;4.40;2.47;;;8.80;95.90;;;;;;5030201;28;20022;-70
2022/01/14 06:13:44;;;;;;;15.98;5.82;;;8.80;95.90;;;;;;5036083;28;20040;-70
2022/01/14 06:16:10;;;;;;;16.92;5.70;;;8.90;95.90;;;;;;5035420;28;20025;-70
2022/01/14 06:18:35;;;;;;;10.35;4.97;;;8.90;95.90;;;;;;5036225;28;20037;-70
2022/01/14 06:21:01;;;;;;;14.48;5.63;;;8.80;95.80;;;;;;5035510;28;20124;-71
2022/01/14 06:23:27;;;;;;;6.50;3.78;;;8.80;95.80;;;;;;5035231;28;20030;-69
2022/01/14 06:25:53;;;;;;;10.50;5.35;;;8.90;95.90;;;;;;5032875;28;20330;-69
2022/01/14 06:28:18;;;;;;;7.00;3.42;;;8.90;95.90;;;;;;5032968;28;20041;-69
2022/01/14 06:30:44;;;;;;;5.70;3.05;;;8.90;95.90;;;;;;5031204;28;20029;-70
2022/01/14 06:33:09;;;;;;;17.08;6.00;;;8.90;95.80;;;;;;5031581;28;20041;-69
2022/01/14 06:35:35;;;;;;;7.78;3.65;;;8.90;95.80;;;;;;5032502;28;20029;-69
2022/01/14 06:38:01;;;;;;;10.52;4.88;;;8.90;95.80;;;;;;5031109;28;20552;-70
2022/01/14 06:40:30;;;;;;;7.68;4.28;;;8.90;95.80;;;;;;5032513;28;20035;-70
2022/01/14 06:42:56;;;;;;;13.85;4.65;;;9.00;96.00;;;;;;5031801;28;20087;-70
2022/01/14 06:45:22;;;;;;;11.00;4.43;;;9.00;95.70;;;;;;5032138;28;20416;-69
2022/01/14 06:47:49;;;;;;;16.52;4.45;;;9.00;95.70;;;;;;5032552;28;20041;-71
2022/01/14 06:50:15;;;;;;;7.97;3.20;;;9.00;95.70;;;;;;5032529;28;20022;-70
2022/01/14 06:52:41;;;;;;;9.95;4.10;;;9.10;95.70;;;;;;5033659;28;20032;-67
2022/01/14 06:55:07;;;;;;;9.13;3.70;;;9.10;95.70;;;;;;5034043;28;20033;-69
2022/01/14 06:57:36;;;;;;;3.28;1.30;;;9.10;95.60;;;;;;5033136;28;20037;-70
2022/01/14 07:00:11;;;;;;;7.25;2.38;;;9.10;95.60;;;;;;5035035;28;20393;-68
2022/01/14 07:02:37;;;;;;;11.35;2.83;;;9.00;95.60;;;;;;5035522;28;20030;-72
2022/01/14 07:05:03;;;;;;;2.08;1.83;;;9.10;95.60;;;;;;5034926;28;20104;-79
2022/01/14 07:07:29;;;;;;;18.20;3.17;;;9.10;95.60;;;;;;5035079;28;20053;-71
2022/01/14 07:09:58;;;;;;;1.30;0.98;;;9.10;95.60;;;;;;5032113;28;20033;-70
2022/01/14 07:12:29;;;;;;;9.63;3.78;;;9.10;95.60;;;;;;5028930;28;20087;-70
2022/01/14 07:14:56;;;;;;;6.70;2.65;;;9.10;95.60;;;;;;5031712;28;20029;-72
2022/01/14 07:17:23;;;;;;;5.38;2.42;;;9.10;95.60;;;;;;5032203;28;20542;-72
2022/01/14 07:19:51;;;;;;;20.17;3.47;;;9.10;95.80;;;;;;5031990;28;20025;-72
2022/01/14 07:22:17;;;;;;;16.15;4.10;;;9.10;95.60;;;;;;5031991;28;20049;-68
2022/01/14 07:24:43;;;;;;;13.48;4.43;;;9.10;95.60;;;;;;5031934;28;20656;-68
2022/01/14 07:27:08;;;;;;;10.95;3.63;;;9.20;95.60;;;;;;5032472;28;20079;-70
2022/01/14 07:29:34;;;;;;;14.90;3.80;;;9.20;95.60;;;;;;5033102;28;20030;-69
2022/01/14 07:32:00;;;;;;;15.63;3.53;;;9.20;95.50;;;;;;5032898;28;20522;-69
2022/01/14 07:34:26;;;;;;;18.05;3.53;;;9.20;95.50;;;;;;5032307;28;20034;-69
2022/01/14 07:36:52;;;;;;;10.57;2.17;;;9.20;95.40;;;;;;5032704;28;20497;-69
2022/01/14 07:39:23;;;;;;;7.65;2.22;;;9.20;95.40;;;;;;5027697;28;20037;-68
2022/01/14 07:41:49;;;;;;;13.48;2.80;;;9.20;95.40;;;;;;5029532;28;20033;-69
2022/01/14 07:44:15;;;;;;;9.20;1.85;;;9.30;95.40;;;;;;5032262;28;20143;-69
2022/01/14 07:46:41;;;;;;;10.07;2.08;;;9.30;95.40;;;;;;5033326;28;20053;-69
2022/01/14 07:49:07;;;;;;;18.55;3.30;;;9.30;95.40;;;;;;5034043;28;20128;-69
2022/01/14 07:51:33;;;;;;;15.65;3.20;;;9.30;95.30;;;;;;5031778;28;20033;-69
2022/01/14 07:54:05;;;;;;;5.05;1.25;;;9.30;95.30;;;;;;5031891;28;20769;-69
2022/01/14 07:56:45;;;;;;;10.48;3.05;;;9.30;95.30;;;;;;5033811;28;20045;-68
2022/01/14 07:59:16;;;;;;;8.68;1.98;;;9.30;95.30;;;;;;5032835;28;20041;-69
2022/01/14 08:01:43;;;;;;;7.85;1.95;;;9.30;95.30;;;;;;5031331;28;20026;-70
2022/01/14 08:04:09;;;;;;;13.45;1.73;;;9.30;95.30;;;;;;5032502;28;20473;-70
2022/01/14 08:06:39;;;;;;;1.10;0.57;;;9.30;95.30;;;;;;5031850;28;20148;-70
2022/01/14 08:09:04;;;;;;;1.55;0.93;;;9.30;95.30;;;;;;5030324;28;20049;-71
2022/01/14 08:11:30;;;;;;;12.20;2.10;;;9.30;95.30;;;;;;5031433;28;20033;-71
2022/01/14 08:13:56;;;;;;;0.30;0.30;;;9.30;95.30;;;;;;5031022;28;20025;-70
2022/01/14 08:16:22;;;;;;;7.03;1.92;;;9.30;95.40;;;;;;5030680;28;20029;-70
2022/01/14 08:18:48;;;;;;;3.20;1.40;;;9.20;95.40;;;;;;5031359;28;20029;-69
2022/01/14 08:21:15;;;;;;;2.30;0.85;;;9.30;95.40;;;;;;5030879;28;20044;-70
2022/01/14 08:23:44;;;;;;;10.88;2.03;;;9.20;95.40;;;;;;5027958;28;20488;-69
2022/01/14 08:26:09;;;;;;;1.45;1.23;;;9.20;95.50;;;;;;5030463;28;20045;-71
2022/01/14 08:28:35;;;;;;;0.90;0.85;;;9.20;95.50;;;;;;5032083;28;20033;-70
2022/01/14 08:31:00;;;;;;;5.13;2.33;;;9.20;95.60;;;;;;5030751;28;20025;-71
2022/01/14 08:33:26;;;;;;;2.00;1.17;;;9.10;95.60;;;;;;5030970;28;20116;-70
2022/01/14 08:35:52;;;;;;;2.10;0.98;;;9.20;95.70;;;;;;5030175;28;20384;-70
2022/01/14 08:38:18;;;;;;;1.40;1.15;;;9.10;95.70;;;;;;5030186;28;20083;-71
2022/01/14 08:40:43;;;;;;;6.95;2.80;;;9.20;95.80;;;;;;5029318;28;20537;-73
2022/01/14 08:43:09;;;;;;;7.88;2.95;;;9.10;95.80;;;;;;5030560;28;20041;-71
2022/01/14 08:45:35;;;;;;;5.47;2.17;;;9.10;95.80;;;;;;5030565;28;20087;-71
2022/01/14 08:48:01;;;;;;;12.23;2.45;;;9.20;95.80;;;;;;5030077;28;20049;-72
2022/01/14 08:50:30;;;;;;;5.53;1.38;;;9.20;95.80;;;;;;5029780;28;20041;-71
2022/01/14 08:52:59;;;;;;;7.95;2.20;;;9.20;95.80;;;;;;5030615;28;20029;-71
2022/01/14 08:55:25;;;;;;;12.85;3.80;;;9.30;95.80;;;;;;5031219;28;20040;-68
2022/01/14 08:57:52;;;;;;;12.88;2.22;;;9.30;95.70;;;;;;5027331;28;20060;-71
2022/01/14 09:00:19;;;;;;;2.92;1.45;;;9.30;95.70;;;;;;5033000;28;20120;-71
2022/01/14 09:02:45;;;;;;;5.18;1.77;;;9.30;95.70;;;;;;5033306;28;20029;-70
2022/01/14 09:05:11;;;;;;;4.78;1.50;;;9.40;95.70;;;;;;5032254;28;20088;-71
2022/01/14 09:07:37;;;;;;;9.93;3.13;;;9.30;95.60;;;;;;5033330;28;20124;-71
2022/01/14 09:10:04;;;;;;;11.77;2.63;;;9.40;95.60;;;;;;5033209;28;20030;-71
2022/01/14 09:12:30;;;;;;;11.93;2.75;;;9.40;95.60;;;;;;5032730;28;20388;-70
2022/01/14 09:14:56;;;;;;;2.53;1.13;;;9.40;95.60;;;;;;5031737;28;20030;-71
2022/01/14 09:17:21;;;;;;;6.95;1.38;;;9.50;95.60;;;;;;5032410;28;20048;-70
2022/01/14 09:19:47;;;;;;;1.30;1.00;;;9.40;95.80;;;;;;5031612;28;20066;-71
2022/01/14 09:22:17;;;;;;;18.00;1.70;;;9.40;95.50;;;;;;5032752;28;20033;-71
2022/01/14 09:24:47;;;;;;;12.27;1.85;;;9.40;95.50;;;;;;5032536;28;20045;-70
2022/01/14 09:27:14;;;;;;;0.30;0.30;;;9.40;95.60;;;;;;5032201;28;20037;-70
2022/01/14 09:29:41;;;;;;;7.00;1.83;;;9.40;95.60;;;;;;5032601;28;20496;-70
2022/01/14 09:32:08;;;;;;;4.03;1.48;;;9.40;95.60;;;;;;5032454;28;20037;-71
2022/01/14 09:34:35;;;;;;;13.30;1.88;;;9.40;95.70;;;;;;5020461;28;20094;-70
2022/01/14 09:37:03;;;;;;;1.10;0.95;;;9.40;95.70;;;;;;5032715;28;20041;-71
2022/01/14 09:39:31;;;;;;;10.10;2.08;;;9.40;95.90;;;;;;5032166;28;20894;-70
2022/01/14 09:41:58;;;;;;;9.95;2.45;;;9.50;95.70;;;;;;5032513;28;20396;-70
2022/01/14 09:44:24;;;;;;;3.92;1.15;;;9.40;95.70;;;;;;5032761;28;20447;-70
2022/01/14 09:46:50;;;;;;;27.35;3.70;;;9.40;95.70;;;;;;5030986;28;20034;-70
2022/01/14 09:49:16;;;;;;;12.18;2.25;;;9.50;95.70;;;;;;5032630;28;20048;-70
2022/01/14 09:51:43;;;;;;;16.98;2.22;;;9.50;95.80;;;;;;5032318;28;20116;-70
2022/01/14 09:54:10;;;;;;;10.52;2.00;;;9.50;95.80;;;;;;5032136;28;20388;-70
2022/01/14 09:56:37;;;;;;;13.60;1.13;;;9.60;95.80;;;;;;5032415;28;20097;-70
2022/01/14 09:59:06;;;;;;;11.68;2.72;;;9.60;95.70;;;;;;5032472;28;20034;-68
2022/01/14 10:01:41;;;;;;;20.48;1.88;;;9.60;95.90;;;;;;5031321;28;20030;-68
2022/01/14 10:04:07;;;;;;;13.55;3.08;;;9.60;95.70;;;;;;5032715;28;20037;-68
2022/01/14 10:06:43;;;;;;;6.70;2.72;;;9.70;95.60;;;;;;5032742;28;20393;-69
2022/01/14 10:09:12;;;;;;;13.73;3.05;;;9.70;95.60;;;;;;5031451;28;20049;-69
2022/01/14 10:11:42;;;;;;;7.93;1.67;;;9.70;95.60;;;;;;5032399;28;20051;-68
2022/01/14 10:14:11;;;;;;;5.15;1.60;;;9.70;95.60;;;;;;5032062;28;20083;-68
2022/01/14 10:16:40;;;;;;;13.35;2.60;;;9.70;95.60;;;;;;5031894;28;20049;-68
2022/01/14 10:19:17;;;;;;;10.65;1.88;;;9.70;95.60;;;;;;5032211;28;20037;-68
2022/01/14 10:21:43;;;;;;;16.88;2.22;;;9.80;95.60;;;;;;5031750;28;20037;-69
2022/01/14 10:24:12;;;;;;;12.50;2.50;;;9.80;95.60;;;;;;5031703;28;20021;-69
2022/01/14 10:26:56;;;;;;;8.45;1.33;;;9.80;95.60;;;;;;5031768;28;20060;-69
2022/01/14 10:29:31;;;;;;;6.72;1.73;;;9.80;95.60;;;;;;5031241;28;20044;-68
2022/01/14 10:31:58;;;;;;;7.70;1.40;;;9.80;95.60;;;;;;5031995;28;20033;-67
2022/01/14 10:34:24;;;;;;;2.55;0.98;;;9.80;95.80;;;;;;5032187;28;20042;-69
2022/01/14 10:36:50;;;;;;;10.98;1.85;;;9.80;95.60;;;;;;5025175;28;20028;-71
2022/01/14 10:39:19;;;;;;;20.58;2.70;;;9.90;95.60;;;;;;5031025;28;20033;-71
2022/01/14 10:41:44;;;;;;;11.30;2.17;;;9.80;95.60;;;;;;5031156;28;20396;-71
2022/01/14 10:44:31;;;;;;;12.20;1.70;;;9.80;95.60;;;;;;5030398;28;20035;-71
2022/01/14 10:47:14;;;;;;;12.77;2.88;;;9.90;95.60;;;;;;5029174;28;20099;-71
2022/01/14 10:49:42;;;;;;;16.13;1.98;;;9.90;95.70;;;;;;5029078;28;20037;-71
2022/01/14 10:52:13;;;;;;;7.60;2.20;;;9.90;95.60;;;;;;5030185;28;20030;-71
2022/01/14 10:54:47;;;;;;;11.27;2.53;;;9.90;95.70;;;;;;5031211;28;20025;-71
2022/01/14 10:57:21;;;;;;;13.98;2.60;;;9.90;95.70;;;;;;5031396;28;20036;-69
2022/01/14 10:59:48;;;;;;;13.30;2.65;;;9.90;95.70;;;;;;5035603;28;20034;-70
2022/01/14 11:02:38;;;;;;;12.57;2.47;;;10.00;95.70;;;;;;5034730;28;20119;-70
2022/01/14 11:05:06;;;;;;;11.48;1.65;;;10.00;95.80;;;;;;5034228;28;20038;-70
2022/01/14 11:07:32;;;;;;;10.82;2.25;;;10.00;95.70;;;;;;5034627;28;20477;-70
2022/01/14 11:10:00;;;;;;;12.07;2.90;;;10.00;95.80;;;;;;5034648;28;20030;-70
2022/01/14 11:12:26;;;;;;;3.20;1.42;;;10.00;95.80;;;;;;5033731;28;20021;-70
2022/01/14 11:14:52;;;;;;;13.68;2.28;;;10.00;95.80;;;;;;5034329;28;20377;-71
2022/01/14 11:17:18;;;;;;;16.52;3.17;;;10.00;95.80;;;;;;5034608;28;20026;-70
2022/01/14 11:19:46;;;;;;;16.40;2.70;;;10.00;95.80;;;;;;5033889;28;20048;-70
2022/01/14 11:24:57;;;;;;;15.10;3.28;;;10.00;95.90;;;;;;5033383;28;20037;-70
2022/01/14 11:27:27;;;;;;;11.80;2.95;;;10.00;95.90;;;;;;5034410;28;20069;-70
2022/01/14 11:29:58;;;;;;;6.55;1.52;;;10.00;95.90;;;;;;5034360;28;20055;-70
2022/01/14 11:32:25;;;;;;;9.60;1.92;;;10.10;96.00;;;;;;5033666;28;20033;-70
2022/01/14 11:34:51;;;;;;;7.35;1.80;;;10.10;96.00;;;;;;5034031;28;20091;-70
2022/01/14 11:37:33;;;;;;;10.63;1.95;;;10.10;96.00;;;;;;5034074;28;20029;-70
2022/01/14 11:40:05;;;;;;;9.40;2.17;;;10.10;96.00;;;;;;5033612;28;20095;-70
2022/01/14 11:42:58;;;;;;;15.02;3.13;;;10.10;96.00;;;;;;5034182;28;20033;-70
2022/01/14 11:45:42;;;;;;;5.35;1.63;;;10.10;96.00;;;;;;5033970;28;20171;-70
2022/01/14 11:48:08;;;;;;;12.88;2.70;;;10.10;96.10;;;;;;5033270;28;20045;-70
2022/01/14 11:50:37;;;;;;;6.53;1.65;;;10.10;96.10;;;;;;5033741;28;20033;-70
2022/01/14 11:53:05;;;;;;;18.05;3.55;;;10.20;96.10;;;;;;5033042;28;20033;-71
2022/01/14 11:55:35;;;;;;;6.75;1.58;;;10.20;96.10;;;;;;5034208;28;20073;-70
2022/01/14 11:58:03;;;;;;;20.48;2.83;;;10.20;96.10;;;;;;5034290;28;20061;-70
2022/01/14 12:00:39;;;;;;;8.55;1.85;;;10.20;96.10;;;;;;5030722;28;20160;-71
2022/01/14 12:03:11;;;;;;;18.17;3.00;;;10.20;96.10;;;;;;5034171;28;20045;-70
2022/01/14 12:05:54;;;;;;;15.00;3.05;;;10.20;96.00;;;;;;5034412;28;20060;-70
2022/01/14 12:08:40;;;;;;;17.85;3.00;;;10.30;96.10;;;;;;5028584;28;20369;-70
2022/01/14 12:11:09;;;;;;;11.15;1.95;;;10.30;96.00;;;;;;5033949;28;20034;-70
2022/01/14 12:13:49;;;;;;;22.65;3.55;;;10.30;96.00;;;;;;5033812;28;20025;-69
2022/01/14 12:18:57;;;;;;;16.00;1.85;;;10.30;96.00;;;;;;5033210;28;20037;-69
2022/01/14 12:21:40;;;;;;;29.55;2.63;;;10.40;96.00;;;;;;5032842;28;20055;-69
2022/01/14 12:24:18;;;;;;;10.80;2.20;;;10.40;96.00;;;;;;5034727;28;20092;-69
2022/01/14 12:26:52;;;;;;;13.88;2.35;;;10.40;96.00;;;;;;5033599;28;20057;-68
2022/01/14 12:29:20;;;;;;;7.68;1.55;;;10.40;96.00;;;;;;5032055;28;20037;-70
2022/01/14 12:32:12;;;;;;;10.57;2.00;;;10.50;96.00;;;;;;5033032;28;20083;-70
2022/01/14 12:34:44;;;;;;;15.70;2.25;;;10.50;96.00;;;;;;5033064;28;20030;-70
2022/01/14 12:37:21;;;;;;;10.33;2.20;;;10.50;96.00;;;;;;5032488;28;20083;-70
2022/01/14 12:39:49;;;;;;;21.50;3.65;;;10.50;96.00;;;;;;5032760;28;20035;-70
2022/01/14 12:42:18;;;;;;;12.90;2.17;;;10.50;96.00;;;;;;5032270;28;20025;-70
2022/01/14 12:44:45;;;;;;;12.55;1.63;;;10.50;96.00;;;;;;5032604;28;20108;-70
2022/01/14 12:47:19;;;;;;;2.38;1.40;;;10.50;96.00;;;;;;5032759;28;20033;-70
2022/01/14 12:49:44;;;;;;;9.75;1.60;;;10.50;96.00;;;;;;5031958;28;20048;-70
2022/01/14 12:52:29;;;;;;;6.68;1.67;;;10.50;96.00;;;;;;5032395;28;20029;-70
2022/01/14 12:54:55;;;;;;;9.52;1.83;;;10.50;96.00;;;;;;5032712;28;20037;-70
2022/01/14 12:57:24;;;;;;;16.35;3.42;;;10.50;96.10;;;;;;5032023;28;20037;-70
2022/01/14 12:59:51;;;;;;;2.10;1.02;;;10.50;96.10;;;;;;5032664;28;20104;-70
2022/01/14 13:02:25;;;;;;;3.80;1.65;;;10.50;96.10;;;;;;5032386;28;20034;-70
2022/01/14 13:05:00;;;;;;;6.70;2.20;;;10.50;96.10;;;;;;5031853;28;20053;-70
2022/01/14 13:07:26;;;;;;;13.50;2.10;;;10.50;96.10;;;;;;5032356;28;20476;-69
2022/01/14 13:09:52;;;;;;;1.27;0.52;;;10.60;96.20;;;;;;5032550;28;20057;-70
2022/01/14 13:12:20;;;;;;;16.30;2.55;;;10.60;96.20;;;;;;5032257;28;20401;-69
2022/01/14 13:14:55;;;;;;;12.07;2.58;;;10.60;96.20;;;;;;5032529;28;20021;-69
2022/01/14 13:17:29;;;;;;;17.95;3.05;;;10.60;96.30;;;;;;5027225;28;20385;-70
2022/01/14 13:20:03;;;;;;;10.48;2.15;;;10.60;96.30;;;;;;5025613;28;20481;-70
2022/01/14 13:22:32;;;;;;;27.23;3.60;;;10.60;96.30;;;;;;5032419;28;20045;-70
2022/01/14 13:25:11;;;;;;;13.50;3.00;;;10.60;96.20;;;;;;5031743;28;20046;-70
2022/01/14 13:27:42;;;;;;;1.05;0.65;;;10.70;96.20;;;;;;5032764;28;20049;-70
2022/01/14 13:30:21;;;;;;;19.40;3.80;;;10.60;96.20;;;;;;5032733;28;20030;-70
2022/01/14 13:32:52;;;;;;;21.77;4.07;;;10.70;96.20;;;;;;5031860;28;20025;-70